Time;durP1;ratioP1;P1;durP2;ratioP2;P2;SDS_P1;SDS_P2;PMS_P1;PMS_P2;Temp;Humidity;BMP_temperature;BMP_pressure;BME280_temperature;BME280_humidity;BME280_pressure;Samples;Min_cycle;Max_cycle;Signal;HPM_P1;HPM_P2
2024/01/04 00:01:11;;;;;;;1.58;0.75;;;;;;;;;;7383713;19;20003;-78
2024/01/04 00:03:37;;;;;;;1.25;1.15;;;;;;;;;;7378546;19;20007;-77
2024/01/04 00:06:02;;;;;;;2.13;1.00;;;;;;;;;;7381759;19;20034;-79
2024/01/04 00:08:28;;;;;;;1.88;0.80;;;;;;;;;;7402176;19;20413;-79
2024/01/04 00:10:53;;;;;;;2.55;0.85;;;;;;;;;;7379846;19;20010;-79
2024/01/04 00:13:19;;;;;;;3.25;1.20;;;;;;;;;;7378556;19;20006;-78
2024/01/04 00:15:44;;;;;;;3.53;1.10;;;;;;;;;;7379032;19;20118;-79
2024/01/04 00:18:09;;;;;;;1.80;0.90;;;;;;;;;;7379422;19;19998;-79
2024/01/04 00:20:35;;;;;;;2.30;1.10;;;;;;;;;;7401822;19;20124;-79
2024/01/04 00:23:00;;;;;;;3.60;0.90;;;;;;;;;;7377777;19;20797;-78
2024/01/04 00:25:25;;;;;;;1.52;0.80;;;;;;;;;;7383208;19;20014;-79
2024/01/04 00:27:51;;;;;;;2.05;0.85;;;;;;;;;;7384132;19;20022;-79
2024/01/04 00:30:17;;;;;;;2.42;1.00;;;;;;;;;;7385165;19;20448;-79
2024/01/04 00:32:43;;;;;;;0.80;0.73;;;;;;;;;;7406723;19;20014;-79
2024/01/04 00:35:08;;;;;;;0.88;0.80;;;;;;;;;;7386645;19;20025;-79
2024/01/04 00:37:34;;;;;;;1.45;0.70;;;;;;;;;;7385286;19;20015;-79
2024/01/04 00:39:59;;;;;;;1.63;0.90;;;;;;;;;;7383657;19;20013;-79
2024/01/04 00:42:24;;;;;;;0.57;0.57;;;;;;;;;;7385579;19;20014;-79
2024/01/04 00:44:50;;;;;;;1.02;0.85;;;;;;;;;;7411433;19;20040;-79
2024/01/04 00:47:15;;;;;;;1.80;0.70;;;;;;;;;;7390492;19;20064;-79
2024/01/04 00:49:41;;;;;;;1.08;0.77;;;;;;;;;;7389391;19;20003;-79
2024/01/04 00:52:06;;;;;;;0.63;0.63;;;;;;;;;;7393032;19;20064;-79
2024/01/04 00:54:32;;;;;;;1.75;0.98;;;;;;;;;;7388184;19;20006;-78
2024/01/04 00:56:58;;;;;;;2.35;0.80;;;;;;;;;;7403646;19;20037;-79
2024/01/04 00:59:23;;;;;;;2.42;0.95;;;;;;;;;;7405865;19;20525;-78
2024/01/04 01:01:48;;;;;;;1.92;0.80;;;;;;;;;;7388005;19;20035;-79
2024/01/04 01:04:14;;;;;;;1.90;1.10;;;;;;;;;;7397403;19;19998;-79
2024/01/04 01:06:39;;;;;;;1.55;0.80;;;;;;;;;;7396672;19;20003;-79
2024/01/04 01:09:05;;;;;;;1.25;0.82;;;;;;;;;;7386944;19;19999;-80
2024/01/04 01:11:30;;;;;;;0.70;0.70;;;;;;;;;;7406934;19;20002;-79
2024/01/04 01:13:55;;;;;;;0.95;0.70;;;;;;;;;;7386739;19;20050;-78
2024/01/04 01:16:21;;;;;;;1.75;0.70;;;;;;;;;;7404383;19;20017;-78
2024/01/04 01:18:46;;;;;;;0.90;0.90;;;;;;;;;;7408150;19;19999;-78
2024/01/04 01:21:11;;;;;;;1.20;0.75;;;;;;;;;;7405665;19;20014;-78
2024/01/04 01:23:37;;;;;;;2.47;0.80;;;;;;;;;;7413273;19;19998;-78
2024/01/04 01:26:02;;;;;;;2.55;1.02;;;;;;;;;;7389044;19;20019;-78
2024/01/04 01:28:31;;;;;;;1.00;0.80;;;;;;;;;;7386314;19;20010;-80
2024/01/04 01:30:58;;;;;;;1.55;0.70;;;;;;;;;;7382409;19;20029;-78
2024/01/04 01:33:24;;;;;;;0.73;0.63;;;;;;;;;;7405299;19;20048;-78
2024/01/04 01:35:50;;;;;;;1.48;0.80;;;;;;;;;;7426292;19;20003;-78
2024/01/04 01:38:15;;;;;;;1.38;0.88;;;;;;;;;;7400551;19;20026;-78
2024/01/04 01:40:40;;;;;;;0.90;0.70;;;;;;;;;;7402790;19;20006;-78
2024/01/04 01:43:06;;;;;;;0.82;0.63;;;;;;;;;;7404498;19;20007;-78
2024/01/04 01:45:31;;;;;;;0.60;0.60;;;;;;;;;;7405054;19;20011;-78
2024/01/04 01:47:57;;;;;;;3.13;1.02;;;;;;;;;;7421220;19;20356;-78
2024/01/04 01:50:23;;;;;;;2.03;0.90;;;;;;;;;;7394567;19;20008;-78
2024/01/04 01:52:50;;;;;;;1.70;0.80;;;;;;;;;;7389831;19;20079;-77
2024/01/04 01:55:16;;;;;;;1.85;1.00;;;;;;;;;;7400370;19;20005;-78
2024/01/04 01:57:42;;;;;;;0.73;0.68;;;;;;;;;;7397850;19;20619;-77
2024/01/04 02:00:10;;;;;;;1.30;0.85;;;;;;;;;;7394356;19;20014;-78
2024/01/04 02:02:36;;;;;;;0.98;0.70;;;;;;;;;;7421922;19;20044;-78
2024/01/04 02:05:02;;;;;;;2.10;0.77;;;;;;;;;;7404941;19;20095;-78
2024/01/04 02:07:28;;;;;;;0.77;0.70;;;;;;;;;;7403303;19;20028;-78
2024/01/04 02:09:53;;;;;;;0.88;0.77;;;;;;;;;;7401521;19;20709;-78
2024/01/04 02:12:19;;;;;;;1.02;0.90;;;;;;;;;;7402847;19;20015;-79
2024/01/04 02:14:44;;;;;;;2.40;0.80;;;;;;;;;;7417511;19;20058;-78
2024/01/04 02:17:10;;;;;;;1.23;0.77;;;;;;;;;;7394434;19;19999;-78
2024/01/04 02:19:35;;;;;;;0.80;0.80;;;;;;;;;;7395480;19;20010;-78
2024/01/04 02:22:02;;;;;;;0.98;0.85;;;;;;;;;;7392976;19;20083;-78
2024/01/04 02:24:27;;;;;;;2.08;1.10;;;;;;;;;;7396255;19;20010;-78
2024/01/04 02:26:53;;;;;;;1.23;0.73;;;;;;;;;;7412061;19;19995;-77
2024/01/04 02:29:18;;;;;;;2.40;0.82;;;;;;;;;;7382860;19;20020;-78
2024/01/04 02:31:44;;;;;;;2.53;1.17;;;;;;;;;;7382003;19;20010;-78
2024/01/04 02:34:10;;;;;;;1.73;1.00;;;;;;;;;;7379221;19;20003;-77
2024/01/04 02:36:35;;;;;;;2.28;0.95;;;;;;;;;;7381023;19;20619;-78
2024/01/04 02:39:01;;;;;;;1.25;0.88;;;;;;;;;;7385785;19;19998;-78
2024/01/04 02:41:26;;;;;;;2.25;0.93;;;;;;;;;;7424041;19;19999;-78
2024/01/04 02:43:51;;;;;;;1.90;1.10;;;;;;;;;;7403100;19;20035;-78
2024/01/04 02:46:16;;;;;;;2.97;1.13;;;;;;;;;;7382248;19;20021;-78
2024/01/04 02:48:42;;;;;;;1.52;0.80;;;;;;;;;;7377412;19;20082;-77
2024/01/04 02:51:08;;;;;;;1.90;0.77;;;;;;;;;;7378130;19;20018;-78
2024/01/04 02:53:33;;;;;;;1.48;0.90;;;;;;;;;;7405299;19;20008;-78
2024/01/04 02:55:58;;;;;;;1.80;0.80;;;;;;;;;;7392333;19;20066;-77
2024/01/04 02:58:25;;;;;;;1.52;0.85;;;;;;;;;;7384306;19;20017;-78
2024/01/04 03:00:51;;;;;;;1.77;0.90;;;;;;;;;;7380211;19;20009;-79
2024/01/04 03:03:16;;;;;;;1.60;0.73;;;;;;;;;;7382654;19;20501;-79
2024/01/04 03:05:41;;;;;;;0.70;0.70;;;;;;;;;;7402813;19;20331;-79
2024/01/04 03:08:07;;;;;;;1.40;0.77;;;;;;;;;;7379861;19;20019;-79
2024/01/04 03:10:32;;;;;;;4.28;1.30;;;;;;;;;;7381814;19;20013;-78
2024/01/04 03:12:57;;;;;;;0.82;0.82;;;;;;;;;;7379877;19;20017;-78
2024/01/04 03:15:23;;;;;;;0.80;0.80;;;;;;;;;;7380317;19;20107;-78
2024/01/04 03:17:49;;;;;;;1.27;0.90;;;;;;;;;;7400933;19;19998;-78
2024/01/04 03:20:14;;;;;;;1.45;0.88;;;;;;;;;;7379495;19;20042;-78
2024/01/04 03:22:39;;;;;;;1.52;0.80;;;;;;;;;;7375005;19;20038;-78
2024/01/04 03:25:07;;;;;;;0.60;0.60;;;;;;;;;;7394531;19;20030;-78
2024/01/04 03:27:33;;;;;;;0.70;0.70;;;;;;;;;;7396862;19;20010;-78
2024/01/04 03:29:59;;;;;;;0.50;0.50;;;;;;;;;;7396914;19;19990;-79
2024/01/04 03:32:24;;;;;;;1.30;0.65;;;;;;;;;;7419329;19;20030;-78
2024/01/04 03:34:49;;;;;;;0.88;0.55;;;;;;;;;;7400738;19;20036;-79
2024/01/04 03:37:15;;;;;;;0.60;0.60;;;;;;;;;;7383026;19;20030;-77
2024/01/04 03:39:40;;;;;;;0.70;0.70;;;;;;;;;;7377827;19;20831;-78
2024/01/04 03:42:06;;;;;;;1.48;0.63;;;;;;;;;;7379579;19;20007;-78
2024/01/04 03:44:31;;;;;;;1.02;0.70;;;;;;;;;;7399406;19;20087;-78
2024/01/04 03:46:56;;;;;;;0.95;0.63;;;;;;;;;;7379632;19;20017;-78
2024/01/04 03:49:22;;;;;;;1.65;0.90;;;;;;;;;;7377969;19;20015;-78
2024/01/04 03:51:47;;;;;;;0.60;0.60;;;;;;;;;;7379500;19;20089;-77
2024/01/04 03:54:12;;;;;;;1.05;0.70;;;;;;;;;;7374595;19;20046;-78
2024/01/04 03:56:38;;;;;;;1.05;1.05;;;;;;;;;;7403799;19;19991;-79
2024/01/04 03:59:03;;;;;;;2.00;0.77;;;;;;;;;;7377481;19;20075;-78
2024/01/04 04:01:29;;;;;;;1.45;0.82;;;;;;;;;;7383921;19;20066;-77
2024/01/04 04:03:54;;;;;;;1.90;0.80;;;;;;;;;;7383715;19;20066;-78
2024/01/04 04:06:20;;;;;;;2.05;0.70;;;;;;;;;;7384866;19;20027;-78
2024/01/04 04:08:46;;;;;;;0.77;0.65;;;;;;;;;;7424893;19;20003;-78
2024/01/04 04:11:18;;;;;;;2.42;0.80;;;;;;;;;;7394269;19;20003;-79
2024/01/04 04:13:44;;;;;;;1.27;0.70;;;;;;;;;;7397376;19;20018;-78
2024/01/04 04:16:09;;;;;;;1.38;0.73;;;;;;;;;;7390188;19;20058;-78
2024/01/04 04:18:34;;;;;;;0.90;0.60;;;;;;;;;;7388393;19;20003;-78
2024/01/04 04:21:00;;;;;;;1.00;0.60;;;;;;;;;;7396001;19;20042;-78
2024/01/04 04:23:25;;;;;;;2.70;0.82;;;;;;;;;;7412463;19;20058;-78
2024/01/04 04:25:50;;;;;;;0.45;0.45;;;;;;;;;;7394756;19;20010;-78
2024/01/04 04:28:16;;;;;;;0.70;0.60;;;;;;;;;;7395775;19;20006;-78
2024/01/04 04:30:41;;;;;;;1.50;0.70;;;;;;;;;;7392234;19;20010;-78
2024/01/04 04:33:06;;;;;;;1.23;0.70;;;;;;;;;;7389468;19;20026;-78
2024/01/04 04:35:32;;;;;;;0.95;0.70;;;;;;;;;;7414422;19;20009;-78
2024/01/04 04:37:57;;;;;;;1.75;1.13;;;;;;;;;;7391634;19;20456;-78
2024/01/04 04:40:23;;;;;;;3.13;1.05;;;;;;;;;;7389793;19;20502;-78
2024/01/04 04:42:48;;;;;;;1.88;1.17;;;;;;;;;;7388114;19;20463;-78
2024/01/04 04:45:13;;;;;;;1.25;0.85;;;;;;;;;;7391593;19;20007;-78
2024/01/04 04:47:39;;;;;;;2.03;0.88;;;;;;;;;;7418809;19;20010;-79
2024/01/04 04:50:05;;;;;;;2.03;0.70;;;;;;;;;;7401563;19;20014;-79
2024/01/04 04:52:30;;;;;;;0.57;0.57;;;;;;;;;;7398662;19;20048;-78
2024/01/04 04:54:55;;;;;;;1.23;0.70;;;;;;;;;;7393809;19;20014;-78
2024/01/04 04:57:21;;;;;;;0.73;0.73;;;;;;;;;;7393495;19;20014;-77
2024/01/04 04:59:47;;;;;;;1.30;0.80;;;;;;;;;;7410804;19;20010;-79
2024/01/04 05:02:12;;;;;;;0.63;0.60;;;;;;;;;;7379426;19;20007;-77
2024/01/04 05:04:38;;;;;;;0.77;0.70;;;;;;;;;;7382206;19;20076;-77
2024/01/04 05:07:04;;;;;;;0.93;0.70;;;;;;;;;;7382006;19;20015;-77
2024/01/04 05:09:29;;;;;;;2.17;1.40;;;;;;;;;;7382672;19;20011;-77
2024/01/04 05:11:55;;;;;;;1.48;1.23;;;;;;;;;;7406045;19;20007;-78
2024/01/04 05:14:20;;;;;;;1.98;0.95;;;;;;;;;;7384202;19;20053;-77
2024/01/04 05:16:45;;;;;;;0.70;0.70;;;;;;;;;;7389148;19;20030;-78
2024/01/04 05:19:11;;;;;;;1.27;0.80;;;;;;;;;;7396699;19;20015;-78
2024/01/04 05:21:36;;;;;;;1.85;1.00;;;;;;;;;;7394834;19;20011;-78
2024/01/04 05:24:02;;;;;;;1.90;0.90;;;;;;;;;;7389640;19;20010;-78
2024/01/04 05:26:27;;;;;;;2.10;1.00;;;;;;;;;;7411286;19;20002;-78
2024/01/04 05:28:54;;;;;;;2.33;0.73;;;;;;;;;;7389862;19;20006;-78
2024/01/04 05:31:19;;;;;;;1.35;0.82;;;;;;;;;;7400593;19;20006;-78
2024/01/04 05:33:48;;;;;;;5.72;2.53;;;;;;;;;;7407108;19;20425;-78
2024/01/04 05:38:44;;;;;;;6.85;1.60;;;;;;;;;;7392672;19;20027;-78
2024/01/04 05:41:10;;;;;;;4.22;1.48;;;;;;;;;;7418438;19;20074;-78
2024/01/04 05:43:35;;;;;;;1.40;0.90;;;;;;;;;;7392113;19;20605;-78
2024/01/04 05:46:05;;;;;;;1.65;0.88;;;;;;;;;;7391862;19;20027;-78
2024/01/04 05:48:34;;;;;;;1.08;0.95;;;;;;;;;;7401369;19;19997;-78
2024/01/04 05:50:59;;;;;;;2.35;0.88;;;;;;;;;;7402536;19;20003;-78
2024/01/04 05:53:25;;;;;;;1.75;1.08;;;;;;;;;;7424237;19;20002;-78
2024/01/04 05:55:51;;;;;;;0.80;0.80;;;;;;;;;;7395953;19;20410;-77
2024/01/04 05:58:16;;;;;;;3.00;0.82;;;;;;;;;;7383605;19;20059;-77
2024/01/04 06:00:41;;;;;;;0.90;0.82;;;;;;;;;;7399847;19;20029;-78
2024/01/04 06:03:07;;;;;;;2.35;0.93;;;;;;;;;;7400074;19;19995;-77
2024/01/04 06:05:33;;;;;;;1.23;0.90;;;;;;;;;;7418232;19;20546;-79
2024/01/04 06:08:00;;;;;;;1.63;0.98;;;;;;;;;;7392024;19;20002;-78
2024/01/04 06:10:25;;;;;;;2.67;1.33;;;;;;;;;;7390921;19;20010;-77
2024/01/04 06:12:50;;;;;;;3.85;1.10;;;;;;;;;;7392206;19;20022;-77
2024/01/04 06:15:16;;;;;;;1.83;0.90;;;;;;;;;;7386034;19;20022;-77
2024/01/04 06:17:41;;;;;;;2.47;0.98;;;;;;;;;;7415082;19;20027;-77
2024/01/04 06:20:07;;;;;;;0.80;0.73;;;;;;;;;;7390542;19;20006;-78
2024/01/04 06:22:33;;;;;;;2.30;1.02;;;;;;;;;;7395640;19;20006;-78
2024/01/04 06:24:58;;;;;;;1.50;0.85;;;;;;;;;;7389452;19;20042;-77
2024/01/04 06:27:26;;;;;;;1.13;0.65;;;;;;;;;;7387730;19;19998;-77
2024/01/04 06:29:52;;;;;;;1.42;1.00;;;;;;;;;;7413321;19;20003;-78
2024/01/04 06:32:17;;;;;;;1.60;0.70;;;;;;;;;;7390250;19;20014;-78
2024/01/04 06:34:42;;;;;;;1.23;0.82;;;;;;;;;;7380194;19;20553;-74
2024/01/04 06:37:08;;;;;;;0.88;0.88;;;;;;;;;;7359460;19;20009;-72
2024/01/04 06:39:33;;;;;;;6.15;2.85;;;;;;;;;;7376644;19;20006;-78
2024/01/04 06:41:59;;;;;;;4.45;2.25;;;;;;;;;;7390562;19;20003;-77
2024/01/04 06:44:24;;;;;;;0.80;0.80;;;;;;;;;;7411874;19;20002;-77
2024/01/04 06:46:50;;;;;;;2.95;1.08;;;;;;;;;;7387832;19;20369;-77
2024/01/04 06:49:16;;;;;;;1.27;0.80;;;;;;;;;;7389488;19;20099;-77
2024/01/04 06:51:42;;;;;;;4.15;0.98;;;;;;;;;;7392875;19;20010;-77
2024/01/04 06:54:07;;;;;;;3.60;1.17;;;;;;;;;;7391487;19;20005;-77
2024/01/04 06:56:32;;;;;;;1.33;0.80;;;;;;;;;;7413622;19;20339;-77
2024/01/04 06:58:58;;;;;;;3.38;0.90;;;;;;;;;;7390427;19;20030;-77
2024/01/04 07:01:23;;;;;;;4.68;1.20;;;;;;;;;;7391805;19;19994;-77
2024/01/04 07:03:49;;;;;;;4.20;0.93;;;;;;;;;;7386910;19;20357;-77
2024/01/04 07:06:16;;;;;;;1.40;0.90;;;;;;;;;;7387907;19;20003;-77
2024/01/04 07:08:41;;;;;;;2.15;1.20;;;;;;;;;;7412227;19;20010;-77
2024/01/04 07:11:10;;;;;;;1.92;1.27;;;;;;;;;;7389522;19;20484;-77
2024/01/04 07:13:35;;;;;;;1.50;0.73;;;;;;;;;;7388454;19;20139;-77
2024/01/04 07:16:06;;;;;;;1.70;1.08;;;;;;;;;;7392400;19;20002;-77
2024/01/04 07:18:32;;;;;;;1.88;1.00;;;;;;;;;;7392713;19;20015;-77
2024/01/04 07:20:57;;;;;;;1.00;0.80;;;;;;;;;;7403228;19;20006;-77
2024/01/04 07:23:23;;;;;;;1.30;1.13;;;;;;;;;;7404224;19;19994;-77
2024/01/04 07:25:48;;;;;;;1.85;0.98;;;;;;;;;;7389533;19;20039;-77
2024/01/04 07:28:13;;;;;;;2.20;1.00;;;;;;;;;;7390225;19;20026;-77
2024/01/04 07:30:39;;;;;;;1.63;0.80;;;;;;;;;;7384771;19;20003;-77
2024/01/04 07:33:05;;;;;;;0.60;0.60;;;;;;;;;;7387160;19;19995;-77
2024/01/04 07:35:30;;;;;;;2.13;0.60;;;;;;;;;;7409786;19;19999;-77
2024/01/04 07:37:57;;;;;;;5.70;2.53;;;;;;;;;;7388870;19;19999;-78
2024/01/04 07:40:22;;;;;;;36.78;21.33;;;;;;;;;;7392206;19;20006;-78
2024/01/04 07:42:47;;;;;;;5.13;2.90;;;;;;;;;;7392048;19;20014;-77
2024/01/04 07:45:13;;;;;;;2.35;1.45;;;;;;;;;;7391349;19;20002;-78
2024/01/04 07:47:39;;;;;;;0.98;0.77;;;;;;;;;;7408861;19;20512;-77
2024/01/04 07:50:05;;;;;;;1.08;0.80;;;;;;;;;;7382764;19;20026;-78
2024/01/04 07:52:30;;;;;;;1.95;0.98;;;;;;;;;;7382067;19;20006;-77
2024/01/04 07:54:57;;;;;;;1.10;1.00;;;;;;;;;;7383179;19;20042;-78
2024/01/04 07:57:22;;;;;;;1.73;1.00;;;;;;;;;;7383927;19;20015;-77
2024/01/04 07:59:47;;;;;;;0.80;0.80;;;;;;;;;;7406037;19;20034;-77
2024/01/04 08:02:13;;;;;;;3.60;1.63;;;;;;;;;;7385874;19;20006;-77
2024/01/04 08:04:38;;;;;;;1.73;1.20;;;;;;;;;;7391414;19;20003;-77
2024/01/04 08:07:04;;;;;;;2.00;0.85;;;;;;;;;;7392870;19;20035;-77
2024/01/04 08:09:29;;;;;;;0.98;0.70;;;;;;;;;;7379799;19;20006;-77
2024/01/04 08:11:55;;;;;;;1.05;0.73;;;;;;;;;;7406174;19;20002;-77
2024/01/04 08:14:20;;;;;;;1.02;1.00;;;;;;;;;;7380088;19;19999;-77
2024/01/04 08:16:45;;;;;;;0.90;0.90;;;;;;;;;;7384814;19;20099;-77
2024/01/04 08:19:11;;;;;;;28.55;14.77;;;;;;;;;;7384605;19;20054;-77
2024/01/04 08:21:37;;;;;;;4.85;1.67;;;;;;;;;;7386770;19;20345;-77
2024/01/04 08:24:03;;;;;;;1.08;0.60;;;;;;;;;;7404839;19;19995;-77
2024/01/04 08:26:29;;;;;;;2.10;0.95;;;;;;;;;;7379376;19;20022;-77
2024/01/04 08:28:54;;;;;;;3.17;0.80;;;;;;;;;;7406341;19;20003;-76
2024/01/04 08:31:21;;;;;;;1.25;0.95;;;;;;;;;;7384442;19;20002;-76
2024/01/04 08:33:46;;;;;;;0.63;0.63;;;;;;;;;;7387548;19;20011;-77
2024/01/04 08:36:11;;;;;;;1.75;0.80;;;;;;;;;;7385631;19;20503;-77
2024/01/04 08:38:37;;;;;;;2.78;1.02;;;;;;;;;;7379978;19;20014;-77
2024/01/04 08:41:02;;;;;;;1.30;0.80;;;;;;;;;;7404811;19;19997;-76
2024/01/04 08:43:28;;;;;;;0.80;0.80;;;;;;;;;;7385799;19;20014;-76
2024/01/04 08:45:53;;;;;;;1.00;0.90;;;;;;;;;;7388380;19;20010;-77
2024/01/04 08:48:18;;;;;;;0.77;0.73;;;;;;;;;;7389005;19;20461;-77
2024/01/04 08:50:44;;;;;;;1.60;0.70;;;;;;;;;;7385099;19;20042;-77
2024/01/04 08:53:20;;;;;;;0.88;0.60;;;;;;;;;;7386535;19;19998;-78
2024/01/04 08:55:45;;;;;;;1.55;0.70;;;;;;;;;;7406611;19;20540;-77
2024/01/04 08:58:11;;;;;;;0.82;0.80;;;;;;;;;;7383002;19;19998;-77
2024/01/04 09:00:36;;;;;;;0.93;0.75;;;;;;;;;;7382233;19;20026;-77
2024/01/04 09:03:01;;;;;;;1.55;1.15;;;;;;;;;;7383229;19;19998;-77
2024/01/04 09:05:27;;;;;;;1.65;0.80;;;;;;;;;;7387688;19;20022;-77
2024/01/04 09:07:53;;;;;;;0.80;0.80;;;;;;;;;;7414044;19;19994;-77
2024/01/04 09:10:18;;;;;;;1.20;0.95;;;;;;;;;;7390669;19;19995;-77
2024/01/04 09:12:43;;;;;;;0.90;0.90;;;;;;;;;;7390674;19;19999;-77
2024/01/04 09:15:09;;;;;;;3.15;0.90;;;;;;;;;;7390630;19;20030;-77
2024/01/04 09:17:35;;;;;;;1.73;0.93;;;;;;;;;;7390266;19;20012;-76
2024/01/04 09:20:00;;;;;;;1.42;0.90;;;;;;;;;;7409959;19;19994;-77
2024/01/04 09:22:25;;;;;;;1.13;0.90;;;;;;;;;;7390439;19;20006;-77
2024/01/04 09:24:51;;;;;;;0.60;0.60;;;;;;;;;;7391582;19;20006;-76
2024/01/04 09:27:16;;;;;;;1.02;0.63;;;;;;;;;;7393015;19;20002;-77
2024/01/04 09:29:42;;;;;;;0.90;0.68;;;;;;;;;;7394270;19;20022;-77
2024/01/04 09:32:08;;;;;;;1.20;0.80;;;;;;;;;;7392780;19;20060;-77
2024/01/04 09:34:34;;;;;;;2.10;1.02;;;;;;;;;;7409880;19;19998;-76
2024/01/04 09:37:00;;;;;;;1.98;0.90;;;;;;;;;;7390496;19;19991;-77
2024/01/04 09:39:26;;;;;;;1.88;0.90;;;;;;;;;;7390387;19;19992;-76
2024/01/04 09:41:52;;;;;;;2.85;1.42;;;;;;;;;;7390653;19;19994;-76
2024/01/04 09:44:18;;;;;;;2.10;1.00;;;;;;;;;;7386654;19;20110;-76
2024/01/04 09:46:44;;;;;;;0.75;0.75;;;;;;;;;;7414235;19;20001;-76
2024/01/04 09:49:13;;;;;;;0.73;0.73;;;;;;;;;;7395603;19;20037;-77
2024/01/04 09:51:40;;;;;;;0.98;0.90;;;;;;;;;;7393048;19;20039;-75
2024/01/04 09:54:09;;;;;;;1.10;0.88;;;;;;;;;;7392399;19;20062;-76
2024/01/04 09:56:42;;;;;;;1.10;0.85;;;;;;;;;;7391651;19;20063;-77
2024/01/04 09:59:10;;;;;;;2.42;1.20;;;;;;;;;;7391003;19;20022;-77
2024/01/04 10:01:38;;;;;;;1.35;0.90;;;;;;;;;;7414724;19;20002;-76
2024/01/04 10:04:11;;;;;;;2.60;0.98;;;;;;;;;;7391275;19;20009;-76
2024/01/04 10:06:39;;;;;;;1.63;0.95;;;;;;;;;;7391191;19;20010;-76
2024/01/04 10:09:32;;;;;;;2.92;1.05;;;;;;;;;;7391057;19;20006;-75
2024/01/04 10:11:57;;;;;;;2.22;0.93;;;;;;;;;;7387852;19;20022;-76
2024/01/04 10:14:27;;;;;;;2.65;1.00;;;;;;;;;;7388062;19;20022;-76
2024/01/04 10:16:53;;;;;;;1.42;1.13;;;;;;;;;;7408512;19;20007;-75
2024/01/04 10:19:19;;;;;;;2.10;0.90;;;;;;;;;;7387133;19;19999;-75
2024/01/04 10:21:45;;;;;;;4.25;1.20;;;;;;;;;;7394895;19;20017;-77
2024/01/04 10:24:20;;;;;;;3.00;1.00;;;;;;;;;;7389591;19;20467;-77
2024/01/04 10:26:53;;;;;;;1.35;0.90;;;;;;;;;;7383556;19;20031;-77
2024/01/04 10:29:20;;;;;;;4.93;1.83;;;;;;;;;;7387385;19;20011;-76
2024/01/04 10:31:46;;;;;;;4.28;1.42;;;;;;;;;;7407328;19;19995;-77
2024/01/04 10:34:17;;;;;;;4.03;1.35;;;;;;;;;;7386192;19;19998;-76
2024/01/04 10:36:42;;;;;;;;;;;;;;;;;;7390763;19;20006;-76
2024/01/04 10:39:08;;;;;;;5.30;1.90;;;;;;;;;;7390205;19;19945;-76
2024/01/04 10:41:34;;;;;;;5.15;1.42;;;;;;;;;;7388200;19;20133;-76
2024/01/04 10:44:06;;;;;;;3.35;1.05;;;;;;;;;;7408930;19;19995;-77
2024/01/04 10:46:35;;;;;;;5.95;1.60;;;;;;;;;;7388219;19;20042;-76
2024/01/04 10:49:02;;;;;;;2.50;1.00;;;;;;;;;;7387666;19;20015;-76
2024/01/04 10:51:31;;;;;;;4.57;1.40;;;;;;;;;;7390583;19;20085;-76
2024/01/04 10:54:01;;;;;;;4.45;1.20;;;;;;;;;;7387927;19;20014;-76
2024/01/04 10:56:29;;;;;;;2.50;1.10;;;;;;;;;;7390298;19;19995;-76
2024/01/04 10:58:55;;;;;;;4.18;1.45;;;;;;;;;;7409800;19;19995;-76
2024/01/04 11:01:22;;;;;;;2.35;1.23;;;;;;;;;;7385374;19;19998;-77
2024/01/04 11:03:49;;;;;;;4.53;1.25;;;;;;;;;;7384784;19;20165;-76
2024/01/04 11:06:16;;;;;;;2.92;1.10;;;;;;;;;;7386881;19;20512;-77
2024/01/04 11:08:41;;;;;;;5.63;1.30;;;;;;;;;;7387615;19;20058;-77
2024/01/04 11:11:10;;;;;;;4.50;1.20;;;;;;;;;;7389279;19;20006;-76
2024/01/04 11:13:35;;;;;;;3.13;1.20;;;;;;;;;;7406634;19;20002;-77
2024/01/04 11:16:13;;;;;;;4.80;1.35;;;;;;;;;;7386447;19;20022;-77
2024/01/04 11:19:12;;;;;;;6.82;1.50;;;;;;;;;;7387671;19;20004;-77
2024/01/04 11:22:12;;;;;;;4.68;1.60;;;;;;;;;;7385146;19;20051;-78
2024/01/04 11:24:56;;;;;;;5.30;1.70;;;;;;;;;;7388947;19;20030;-77
2024/01/04 11:27:23;;;;;;;5.22;1.42;;;;;;;;;;7388348;19;20014;-77
2024/01/04 11:29:49;;;;;;;4.18;1.42;;;;;;;;;;7390002;19;20030;-77
2024/01/04 11:32:16;;;;;;;5.18;1.60;;;;;;;;;;7382715;19;20007;-78
2024/01/04 11:34:43;;;;;;;5.47;1.70;;;;;;;;;;7407862;19;20013;-77
2024/01/04 11:37:17;;;;;;;6.43;1.67;;;;;;;;;;7386557;19;20006;-77
2024/01/04 11:40:00;;;;;;;6.63;2.03;;;;;;;;;;7383023;19;20695;-77
2024/01/04 11:42:41;;;;;;;8.35;1.85;;;;;;;;;;7382412;19;20011;-76
2024/01/04 11:45:14;;;;;;;9.38;2.25;;;;;;;;;;7381977;19;19999;-76
2024/01/04 11:47:41;;;;;;;6.13;1.83;;;;;;;;;;7383706;19;20032;-75
2024/01/04 11:50:22;;;;;;;8.25;2.10;;;;;;;;;;7399635;19;19998;-76
2024/01/04 11:52:48;;;;;;;7.28;2.10;;;;;;;;;;7408014;19;20003;-75
2024/01/04 11:55:29;;;;;;;9.68;1.88;;;;;;;;;;7384066;19;20006;-77
2024/01/04 11:58:04;;;;;;;12.10;2.55;;;;;;;;;;7379401;19;20017;-77
2024/01/04 12:00:33;;;;;;;8.57;2.17;;;;;;;;;;7376388;19;20098;-77
2024/01/04 12:03:00;;;;;;;7.32;2.08;;;;;;;;;;7378759;19;20034;-77
2024/01/04 12:05:33;;;;;;;7.45;1.70;;;;;;;;;;7380103;19;20004;-76
2024/01/04 12:07:59;;;;;;;9.20;1.90;;;;;;;;;;7401401;19;20489;-77
2024/01/04 12:10:24;;;;;;;9.45;1.83;;;;;;;;;;7378452;19;20002;-77
2024/01/04 12:12:49;;;;;;;9.00;1.88;;;;;;;;;;7381090;19;20010;-77
2024/01/04 12:15:21;;;;;;;5.22;2.30;;;;;;;;;;7380312;19;20039;-77
2024/01/04 12:17:46;;;;;;;10.43;1.63;;;;;;;;;;7383021;19;20002;-77
2024/01/04 12:20:12;;;;;;;6.72;1.63;;;;;;;;;;7383324;19;20023;-77
2024/01/04 12:22:41;;;;;;;5.80;1.30;;;;;;;;;;7407765;19;19994;-77
2024/01/04 12:25:07;;;;;;;5.55;1.77;;;;;;;;;;7384547;19;19999;-77
2024/01/04 12:27:36;;;;;;;9.02;1.60;;;;;;;;;;7382813;19;19999;-76
2024/01/04 12:30:05;;;;;;;9.45;1.83;;;;;;;;;;7387952;19;20005;-76
2024/01/04 12:32:31;;;;;;;4.80;1.52;;;;;;;;;;7381741;19;20023;-76
2024/01/04 12:34:56;;;;;;;4.78;1.10;;;;;;;;;;7405861;19;19994;-76
2024/01/04 12:37:22;;;;;;;6.30;1.52;;;;;;;;;;7382560;19;20070;-77
2024/01/04 12:39:47;;;;;;;4.95;1.30;;;;;;;;;;7392273;19;20003;-77
2024/01/04 12:42:12;;;;;;;5.13;1.30;;;;;;;;;;7388955;19;20057;-77
2024/01/04 12:44:39;;;;;;;6.28;2.33;;;;;;;;;;7388567;19;20346;-77
2024/01/04 12:47:05;;;;;;;7.18;2.38;;;;;;;;;;7418621;19;19990;-77
2024/01/04 12:49:32;;;;;;;4.50;1.60;;;;;;;;;;7393487;19;20014;-77
2024/01/04 12:51:57;;;;;;;4.60;1.30;;;;;;;;;;7391441;19;20002;-77
2024/01/04 12:54:22;;;;;;;5.30;1.50;;;;;;;;;;7392173;19;19998;-77
2024/01/04 12:56:54;;;;;;;5.53;1.40;;;;;;;;;;7389922;19;20027;-77
2024/01/04 12:59:20;;;;;;;5.63;1.65;;;;;;;;;;7390858;19;20035;-77
2024/01/04 13:01:46;;;;;;;7.65;1.80;;;;;;;;;;7415643;19;19994;-78
2024/01/04 13:04:11;;;;;;;6.97;1.60;;;;;;;;;;7387643;19;20074;-77
2024/01/04 13:06:37;;;;;;;7.60;1.90;;;;;;;;;;7395465;19;19998;-77
2024/01/04 13:09:02;;;;;;;6.97;1.63;;;;;;;;;;7393322;19;19999;-78
2024/01/04 13:11:27;;;;;;;10.73;1.60;;;;;;;;;;7394574;19;20462;-78
2024/01/04 13:13:54;;;;;;;8.00;1.63;;;;;;;;;;7421076;19;19995;-77
2024/01/04 13:16:21;;;;;;;7.00;1.70;;;;;;;;;;7400576;19;20051;-77
2024/01/04 13:18:46;;;;;;;6.60;1.65;;;;;;;;;;7395081;19;20002;-77
2024/01/04 13:21:12;;;;;;;5.47;1.40;;;;;;;;;;7395181;19;20074;-78
2024/01/04 13:23:37;;;;;;;8.32;1.95;;;;;;;;;;7392225;19;19999;-78
2024/01/04 13:26:03;;;;;;;10.57;1.65;;;;;;;;;;7414268;19;19998;-77
2024/01/04 13:28:28;;;;;;;9.88;2.53;;;;;;;;;;7393296;19;19994;-77
2024/01/04 13:30:54;;;;;;;5.18;1.50;;;;;;;;;;7393126;19;20058;-77
2024/01/04 13:33:20;;;;;;;7.03;1.83;;;;;;;;;;7394744;19;20038;-77
2024/01/04 13:35:46;;;;;;;10.50;1.80;;;;;;;;;;7392863;19;19994;-77
2024/01/04 13:38:12;;;;;;;10.32;1.95;;;;;;;;;;7389297;19;19994;-78
2024/01/04 13:40:37;;;;;;;12.13;1.75;;;;;;;;;;7413755;19;20006;-77
2024/01/04 13:43:04;;;;;;;6.47;1.88;;;;;;;;;;7389874;19;20018;-77
2024/01/04 13:45:31;;;;;;;6.72;1.92;;;;;;;;;;7389699;19;19998;-77
2024/01/04 13:47:56;;;;;;;5.03;1.70;;;;;;;;;;7390517;19;20377;-77
2024/01/04 13:50:21;;;;;;;6.95;1.75;;;;;;;;;;7390846;19;20062;-77
2024/01/04 13:52:49;;;;;;;6.75;1.77;;;;;;;;;;7411890;19;20002;-78
2024/01/04 13:55:16;;;;;;;6.88;1.73;;;;;;;;;;7391267;19;20003;-78
2024/01/04 13:57:42;;;;;;;7.05;1.45;;;;;;;;;;7391868;19;20002;-77
2024/01/04 14:00:09;;;;;;;7.00;1.70;;;;;;;;;;7393056;19;20011;-77
2024/01/04 14:02:36;;;;;;;7.88;1.60;;;;;;;;;;7393757;19;20002;-77
2024/01/04 14:05:01;;;;;;;10.20;1.80;;;;;;;;;;7416402;19;20137;-77
2024/01/04 14:07:27;;;;;;;6.50;1.60;;;;;;;;;;7393566;19;20002;-77
2024/01/04 14:09:52;;;;;;;7.57;1.80;;;;;;;;;;7392727;19;20012;-77
2024/01/04 14:12:19;;;;;;;6.32;1.90;;;;;;;;;;7397717;19;20043;-77
2024/01/04 14:14:45;;;;;;;7.88;1.80;;;;;;;;;;7398305;19;20002;-77
2024/01/04 14:17:11;;;;;;;20.13;9.05;;;;;;;;;;7384398;19;19999;-77
2024/01/04 14:19:37;;;;;;;10.90;3.67;;;;;;;;;;7412620;19;20006;-77
2024/01/04 14:22:03;;;;;;;7.72;1.75;;;;;;;;;;7386305;19;20069;-77
2024/01/04 14:24:30;;;;;;;5.47;1.70;;;;;;;;;;7389017;19;20447;-77
2024/01/04 14:26:56;;;;;;;9.85;2.03;;;;;;;;;;7388411;19;20478;-77
2024/01/04 14:29:22;;;;;;;6.35;1.83;;;;;;;;;;7391244;19;20021;-77
2024/01/04 14:31:47;;;;;;;5.70;1.88;;;;;;;;;;7411526;19;20327;-77
2024/01/04 14:34:13;;;;;;;7.55;1.77;;;;;;;;;;7389792;19;20018;-77
2024/01/04 14:36:41;;;;;;;8.50;1.98;;;;;;;;;;7390666;19;20026;-77
2024/01/04 14:39:06;;;;;;;8.70;1.67;;;;;;;;;;7392176;19;20023;-77
2024/01/04 14:41:32;;;;;;;7.25;1.73;;;;;;;;;;7391409;19;20006;-77